Time;durP1;ratioP1;P1;durP2;ratioP2;P2;SDS_P1;SDS_P2;PMS_P1;PMS_P2;Temp;Humidity;BMP_temperature;BMP_pressure;BME280_temperature;BME280_humidity;BME280_pressure;Samples;Min_cycle;Max_cycle;Signal;HPM_P1;HPM_P2
2022/07/15 00:00:09;;;;;;;5.5;4.2;;;;;;;20.74;51.7627;95525.41;;;;
2022/07/15 00:01:10;;;;;;;5.5;4.2;;;;;;;20.74;51.7627;95525.41;;;;
2022/07/15 00:02:11;;;;;;;5.5;4.2;;;;;;;20.74;51.7627;95525.41;;;;
2022/07/15 00:03:12;;;;;;;5.5;4.2;;;;;;;20.74;51.7627;95525.41;;;;
2022/07/15 00:04:12;;;;;;;5.5;4.2;;;;;;;20.74;51.7627;95525.41;;;;
2022/07/15 00:05:12;;;;;;;5.5;4.2;;;;;;;20.74;51.7627;95525.41;;;;
2022/07/15 00:06:14;;;;;;;5.5;4.2;;;;;;;20.74;51.7627;95525.41;;;;
2022/07/15 00:07:15;;;;;;;5.5;4.2;;;;;;;20.74;51.7627;95525.41;;;;
2022/07/15 00:08:16;;;;;;;5.5;4.2;;;;;;;20.74;51.7627;95525.41;;;;
2022/07/15 00:09:17;;;;;;;5.5;4.2;;;;;;;20.74;51.7627;95525.41;;;;
2022/07/15 00:10:18;;;;;;;5.5;4.2;;;;;;;20.74;51.7627;95525.41;;;;
2022/07/15 00:11:19;;;;;;;6;4.249999;;;;;;;20.78;51.82227;95496.12;;;;
2022/07/15 00:12:19;;;;;;;6;4.249999;;;;;;;20.78;51.82227;95496.12;;;;
2022/07/15 00:13:20;;;;;;;6;4.249999;;;;;;;20.78;51.82227;95496.12;;;;
2022/07/15 00:14:21;;;;;;;6;4.249999;;;;;;;20.78;51.82227;95496.12;;;;
2022/07/15 00:15:21;;;;;;;6;4.249999;;;;;;;20.78;51.82227;95496.12;;;;
2022/07/15 00:16:24;;;;;;;6;4.249999;;;;;;;20.78;51.82227;95496.12;;;;
2022/07/15 00:17:26;;;;;;;6;4.249999;;;;;;;20.78;51.82227;95496.12;;;;
2022/07/15 00:18:26;;;;;;;6;4.249999;;;;;;;20.78;51.82227;95496.12;;;;
2022/07/15 00:19:27;;;;;;;6;4.249999;;;;;;;20.78;51.82227;95496.12;;;;
2022/07/15 00:20:33;;;;;;;6;4.249999;;;;;;;20.78;51.82227;95496.12;;;;
2022/07/15 00:21:33;;;;;;;4.7;4.199999;;;;;;;20.57;52.49707;95500.15;;;;
2022/07/15 00:22:34;;;;;;;4.7;4.199999;;;;;;;20.57;52.49707;95500.15;;;;
2022/07/15 00:23:35;;;;;;;4.7;4.199999;;;;;;;20.57;52.49707;95500.15;;;;
2022/07/15 00:24:35;;;;;;;4.7;4.199999;;;;;;;20.57;52.49707;95500.15;;;;
2022/07/15 00:25:36;;;;;;;4.7;4.199999;;;;;;;20.57;52.49707;95500.15;;;;
2022/07/15 00:26:36;;;;;;;4.7;4.199999;;;;;;;20.57;52.49707;95500.15;;;;
2022/07/15 00:27:37;;;;;;;4.7;4.199999;;;;;;;20.57;52.49707;95500.15;;;;
2022/07/15 00:28:52;;;;;;;4.7;4.199999;;;;;;;20.57;52.49707;95500.15;;;;
2022/07/15 00:29:52;;;;;;;4.7;4.199999;;;;;;;20.57;52.49707;95500.15;;;;
2022/07/15 00:30:53;;;;;;;4.7;4.199999;;;;;;;20.57;52.49707;95500.15;;;;
2022/07/15 00:31:54;;;;;;;5.600001;4.199999;;;;;;;20.51;52.83301;95514.78;;;;
2022/07/15 00:32:55;;;;;;;5.600001;4.199999;;;;;;;20.51;52.83301;95514.78;;;;
2022/07/15 00:33:55;;;;;;;5.600001;4.199999;;;;;;;20.51;52.83301;95514.78;;;;
2022/07/15 00:34:56;;;;;;;5.600001;4.199999;;;;;;;20.51;52.83301;95514.78;;;;
2022/07/15 00:35:56;;;;;;;5.600001;4.199999;;;;;;;20.51;52.83301;95514.78;;;;
2022/07/15 00:36:57;;;;;;;5.600001;4.199999;;;;;;;20.51;52.83301;95514.78;;;;
2022/07/15 00:37:58;;;;;;;5.600001;4.199999;;;;;;;20.51;52.83301;95514.78;;;;
2022/07/15 00:38:59;;;;;;;5.600001;4.199999;;;;;;;20.51;52.83301;95514.78;;;;
2022/07/15 00:39:59;;;;;;;5.600001;4.199999;;;;;;;20.51;52.83301;95514.78;;;;
2022/07/15 00:41:00;;;;;;;5.600001;4.199999;;;;;;;20.51;52.83301;95514.78;;;;
2022/07/15 00:42:01;;;;;;;5.600001;4.199999;;;;;;;20.51;52.83301;95514.78;;;;
2022/07/15 00:43:02;;;;;;;5.600001;4.199999;;;;;;;20.51;52.83301;95514.78;;;;
2022/07/15 00:44:03;;;;;;;5.600001;4.199999;;;;;;;20.51;52.83301;95514.78;;;;
2022/07/15 00:45:03;;;;;;;5.600001;4.199999;;;;;;;20.51;52.83301;95514.78;;;;
2022/07/15 00:46:05;;;;;;;5.600001;4.199999;;;;;;;20.51;52.83301;95514.78;;;;
2022/07/15 00:47:06;;;;;;;5.600001;4.199999;;;;;;;20.51;52.83301;95514.78;;;;
2022/07/15 00:48:06;;;;;;;5.600001;4.199999;;;;;;;20.51;52.83301;95514.78;;;;
2022/07/15 00:49:07;;;;;;;5.600001;4.199999;;;;;;;20.51;52.83301;95514.78;;;;
2022/07/15 00:50:10;;;;;;;5.600001;4.199999;;;;;;;20.51;52.83301;95514.78;;;;
2022/07/15 00:51:11;;;;;;;5.600001;4.199999;;;;;;;20.51;52.83301;95514.78;;;;
2022/07/15 00:52:11;;;;;;;5.600001;4.199999;;;;;;;20.51;52.83301;95514.78;;;;
2022/07/15 00:53:12;;;;;;;8.849999;4.65;;;;;;;20.21;53.95898;95527.25;;;;
2022/07/15 00:54:17;;;;;;;8.849999;4.65;;;;;;;20.21;53.95898;95527.25;;;;
2022/07/15 00:55:22;;;;;;;8.849999;4.65;;;;;;;20.21;53.95898;95527.25;;;;
2022/07/15 00:56:24;;;;;;;8.849999;4.65;;;;;;;20.21;53.95898;95527.25;;;;
2022/07/15 00:57:26;;;;;;;8.849999;4.65;;;;;;;20.21;53.95898;95527.25;;;;
2022/07/15 00:58:28;;;;;;;8.849999;4.65;;;;;;;20.21;53.95898;95527.25;;;;
2022/07/15 00:59:32;;;;;;;8.849999;4.65;;;;;;;20.21;53.95898;95527.25;;;;
2022/07/15 01:00:34;;;;;;;8.849999;4.65;;;;;;;20.21;53.95898;95527.25;;;;
2022/07/15 01:01:35;;;;;;;8.849999;4.65;;;;;;;20.21;53.95898;95527.25;;;;
2022/07/15 01:02:35;;;;;;;8.849999;4.65;;;;;;;20.21;53.95898;95527.25;;;;
2022/07/15 01:03:37;;;;;;;8.849999;4.65;;;;;;;20.21;53.95898;95527.25;;;;
2022/07/15 01:04:39;;;;;;;8.4;6.6;;;;;;;19.88;55.02539;95502.56;;;;
2022/07/15 01:05:40;;;;;;;8.4;6.6;;;;;;;19.88;55.02539;95502.56;;;;
2022/07/15 01:06:41;;;;;;;8.4;6.6;;;;;;;19.88;55.02539;95502.56;;;;
2022/07/15 01:07:42;;;;;;;8.4;6.6;;;;;;;19.88;55.02539;95502.56;;;;
2022/07/15 01:08:42;;;;;;;8.4;6.6;;;;;;;19.88;55.02539;95502.56;;;;
2022/07/15 01:09:43;;;;;;;8.4;6.6;;;;;;;19.88;55.02539;95502.56;;;;
2022/07/15 01:10:43;;;;;;;8.4;6.6;;;;;;;19.88;55.02539;95502.56;;;;
2022/07/15 01:11:44;;;;;;;8.4;6.6;;;;;;;19.88;55.02539;95502.56;;;;
2022/07/15 01:12:46;;;;;;;8.4;6.6;;;;;;;19.88;55.02539;95502.56;;;;
2022/07/15 01:13:48;;;;;;;8.4;6.6;;;;;;;19.88;55.02539;95502.56;;;;
2022/07/15 01:14:48;;;;;;;7.849999;7.05;;;;;;;19.33;56.89941;95520.7;;;;
2022/07/15 01:15:49;;;;;;;7.849999;7.05;;;;;;;19.33;56.89941;95520.7;;;;
2022/07/15 01:16:50;;;;;;;7.849999;7.05;;;;;;;19.33;56.89941;95520.7;;;;
2022/07/15 01:17:50;;;;;;;7.849999;7.05;;;;;;;19.33;56.89941;95520.7;;;;
2022/07/15 01:18:51;;;;;;;7.849999;7.05;;;;;;;19.33;56.89941;95520.7;;;;
2022/07/15 01:19:51;;;;;;;7.849999;7.05;;;;;;;19.33;56.89941;95520.7;;;;
2022/07/15 01:20:52;;;;;;;7.849999;7.05;;;;;;;19.33;56.89941;95520.7;;;;
2022/07/15 01:21:53;;;;;;;7.849999;7.05;;;;;;;19.33;56.89941;95520.7;;;;
2022/07/15 01:22:53;;;;;;;7.849999;7.05;;;;;;;19.33;56.89941;95520.7;;;;
2022/07/15 01:23:54;;;;;;;7.849999;7.05;;;;;;;19.33;56.89941;95520.7;;;;
2022/07/15 01:24:55;;;;;;;7.849999;7.05;;;;;;;19.33;56.89941;95520.7;;;;
2022/07/15 01:25:55;;;;;;;9.450002;7.799999;;;;;;;18.85;58.3584;95536.88;;;;
2022/07/15 01:26:56;;;;;;;9.450002;7.799999;;;;;;;18.85;58.3584;95536.88;;;;
2022/07/15 01:27:56;;;;;;;9.450002;7.799999;;;;;;;18.85;58.3584;95536.88;;;;
2022/07/15 01:28:57;;;;;;;9.450002;7.799999;;;;;;;18.85;58.3584;95536.88;;;;
2022/07/15 01:29:58;;;;;;;9.450002;7.799999;;;;;;;18.85;58.3584;95536.88;;;;
2022/07/15 01:30:59;;;;;;;9.450002;7.799999;;;;;;;18.85;58.3584;95536.88;;;;
2022/07/15 01:31:59;;;;;;;9.450002;7.799999;;;;;;;18.85;58.3584;95536.88;;;;
2022/07/15 01:33:00;;;;;;;9.450002;7.799999;;;;;;;18.85;58.3584;95536.88;;;;
2022/07/15 01:34:01;;;;;;;9.450002;7.799999;;;;;;;18.85;58.3584;95536.88;;;;
2022/07/15 01:35:01;;;;;;;9.450002;7.799999;;;;;;;18.85;58.3584;95536.88;;;;
2022/07/15 01:36:02;;;;;;;9.650002;8.5;;;;;;;18.56;59.85059;95523.11;;;;
2022/07/15 01:37:03;;;;;;;9.650002;8.5;;;;;;;18.56;59.85059;95523.11;;;;
2022/07/15 01:38:04;;;;;;;9.650002;8.5;;;;;;;18.56;59.85059;95523.11;;;;
2022/07/15 01:39:04;;;;;;;9.650002;8.5;;;;;;;18.56;59.85059;95523.11;;;;
2022/07/15 01:40:05;;;;;;;9.650002;8.5;;;;;;;18.56;59.85059;95523.11;;;;
2022/07/15 01:41:07;;;;;;;9.650002;8.5;;;;;;;18.56;59.85059;95523.11;;;;
2022/07/15 01:42:07;;;;;;;9.650002;8.5;;;;;;;18.56;59.85059;95523.11;;;;
2022/07/15 01:43:08;;;;;;;9.650002;8.5;;;;;;;18.56;59.85059;95523.11;;;;
2022/07/15 01:44:08;;;;;;;9.650002;8.5;;;;;;;18.56;59.85059;95523.11;;;;
2022/07/15 01:45:11;;;;;;;9.650002;8.5;;;;;;;18.56;59.85059;95523.11;;;;
2022/07/15 01:46:12;;;;;;;9.650002;8.5;;;;;;;18.56;59.85059;95523.11;;;;
2022/07/15 01:47:13;;;;;;;9.650002;8.5;;;;;;;18.56;59.85059;95523.11;;;;
2022/07/15 01:49:21;;;;;;;9.650002;8.5;;;;;;;18.56;59.85059;95523.11;;;;
2022/07/15 01:50:22;;;;;;;9.650002;8.5;;;;;;;18.56;59.85059;95523.11;;;;
2022/07/15 01:51:22;;;;;;;9.650002;8.5;;;;;;;18.56;59.85059;95523.11;;;;
2022/07/15 01:52:24;;;;;;;9.650002;8.5;;;;;;;18.56;59.85059;95523.11;;;;
2022/07/15 01:53:25;;;;;;;9.650002;8.5;;;;;;;18.56;59.85059;95523.11;;;;
2022/07/15 01:54:26;;;;;;;9.650002;8.5;;;;;;;18.56;59.85059;95523.11;;;;
2022/07/15 01:55:29;;;;;;;9.650002;8.5;;;;;;;18.56;59.85059;95523.11;;;;
2022/07/15 01:56:29;;;;;;;9.650002;8.5;;;;;;;18.56;59.85059;95523.11;;;;
2022/07/15 01:57:30;;;;;;;10.4;9.05;;;;;;;18.15;62.29102;95528.17;;;;
2022/07/15 01:58:30;;;;;;;10.4;9.05;;;;;;;18.15;62.29102;95528.17;;;;
2022/07/15 01:59:31;;;;;;;10.4;9.05;;;;;;;18.15;62.29102;95528.17;;;;
2022/07/15 02:00:31;;;;;;;10.4;9.05;;;;;;;18.15;62.29102;95528.17;;;;
2022/07/15 02:01:32;;;;;;;10.4;9.05;;;;;;;18.15;62.29102;95528.17;;;;
2022/07/15 02:02:32;;;;;;;10.4;9.05;;;;;;;18.15;62.29102;95528.17;;;;
2022/07/15 02:03:33;;;;;;;10.4;9.05;;;;;;;18.15;62.29102;95528.17;;;;
2022/07/15 02:04:33;;;;;;;10.4;9.05;;;;;;;18.15;62.29102;95528.17;;;;
2022/07/15 02:05:34;;;;;;;10.4;9.05;;;;;;;18.15;62.29102;95528.17;;;;
2022/07/15 02:06:35;;;;;;;10.4;9.05;;;;;;;18.15;62.29102;95528.17;;;;
2022/07/15 02:07:38;;;;;;;10.4;9.05;;;;;;;18.15;62.29102;95528.17;;;;
2022/07/15 02:08:38;;;;;;;10.6;9.5;;;;;;;17.96;63.16406;95520.64;;;;
2022/07/15 02:09:39;;;;;;;10.6;9.5;;;;;;;17.96;63.16406;95520.64;;;;
2022/07/15 02:10:39;;;;;;;10.6;9.5;;;;;;;17.96;63.16406;95520.64;;;;
2022/07/15 02:11:40;;;;;;;10.6;9.5;;;;;;;17.96;63.16406;95520.64;;;;
2022/07/15 02:12:41;;;;;;;10.6;9.5;;;;;;;17.96;63.16406;95520.64;;;;
2022/07/15 02:13:41;;;;;;;10.6;9.5;;;;;;;17.96;63.16406;95520.64;;;;
2022/07/15 02:14:42;;;;;;;10.6;9.5;;;;;;;17.96;63.16406;95520.64;;;;
2022/07/15 02:15:42;;;;;;;10.6;9.5;;;;;;;17.96;63.16406;95520.64;;;;
2022/07/15 02:16:43;;;;;;;10.6;9.5;;;;;;;17.96;63.16406;95520.64;;;;
2022/07/15 02:17:43;;;;;;;10.6;9.5;;;;;;;17.96;63.16406;95520.64;;;;
2022/07/15 02:18:44;;;;;;;9.949999;8.949999;;;;;;;17.86;63.97266;95528.14;;;;
2022/07/15 02:19:44;;;;;;;9.949999;8.949999;;;;;;;17.86;63.97266;95528.14;;;;
2022/07/15 02:20:46;;;;;;;9.949999;8.949999;;;;;;;17.86;63.97266;95528.14;;;;
2022/07/15 02:21:47;;;;;;;9.949999;8.949999;;;;;;;17.86;63.97266;95528.14;;;;
2022/07/15 02:22:48;;;;;;;9.949999;8.949999;;;;;;;17.86;63.97266;95528.14;;;;
2022/07/15 02:23:48;;;;;;;9.949999;8.949999;;;;;;;17.86;63.97266;95528.14;;;;
2022/07/15 02:24:49;;;;;;;9.949999;8.949999;;;;;;;17.86;63.97266;95528.14;;;;
2022/07/15 02:25:49;;;;;;;9.949999;8.949999;;;;;;;17.86;63.97266;95528.14;;;;
2022/07/15 02:26:50;;;;;;;9.949999;8.949999;;;;;;;17.86;63.97266;95528.14;;;;
2022/07/15 02:27:52;;;;;;;9.949999;8.949999;;;;;;;17.86;63.97266;95528.14;;;;
2022/07/15 02:28:53;;;;;;;9.949999;8.949999;;;;;;;17.86;63.97266;95528.14;;;;
2022/07/15 02:29:54;;;;;;;11.55;10.35;;;;;;;17.74;64.71387;95525.59;;;;
2022/07/15 02:30:55;;;;;;;11.55;10.35;;;;;;;17.74;64.71387;95525.59;;;;
2022/07/15 02:31:55;;;;;;;11.55;10.35;;;;;;;17.74;64.71387;95525.59;;;;
2022/07/15 02:32:56;;;;;;;11.55;10.35;;;;;;;17.74;64.71387;95525.59;;;;
2022/07/15 02:33:57;;;;;;;11.55;10.35;;;;;;;17.74;64.71387;95525.59;;;;
2022/07/15 02:34:58;;;;;;;11.55;10.35;;;;;;;17.74;64.71387;95525.59;;;;
2022/07/15 02:35:59;;;;;;;11.55;10.35;;;;;;;17.74;64.71387;95525.59;;;;
2022/07/15 02:37:00;;;;;;;11.55;10.35;;;;;;;17.74;64.71387;95525.59;;;;
2022/07/15 02:38:00;;;;;;;11.55;10.35;;;;;;;17.74;64.71387;95525.59;;;;
2022/07/15 02:39:02;;;;;;;11.55;10.35;;;;;;;17.74;64.71387;95525.59;;;;
2022/07/15 02:40:03;;;;;;;11.2;10.1;;;;;;;17.76;65.5498;95522.15;;;;
2022/07/15 02:41:05;;;;;;;11.2;10.1;;;;;;;17.76;65.5498;95522.15;;;;
2022/07/15 02:42:06;;;;;;;11.2;10.1;;;;;;;17.76;65.5498;95522.15;;;;
2022/07/15 02:43:06;;;;;;;11.2;10.1;;;;;;;17.76;65.5498;95522.15;;;;
2022/07/15 02:44:07;;;;;;;11.2;10.1;;;;;;;17.76;65.5498;95522.15;;;;
2022/07/15 02:45:07;;;;;;;11.2;10.1;;;;;;;17.76;65.5498;95522.15;;;;
2022/07/15 02:46:09;;;;;;;11.2;10.1;;;;;;;17.76;65.5498;95522.15;;;;
2022/07/15 02:47:10;;;;;;;11.2;10.1;;;;;;;17.76;65.5498;95522.15;;;;
2022/07/15 02:48:10;;;;;;;11.2;10.1;;;;;;;17.76;65.5498;95522.15;;;;
2022/07/15 02:49:11;;;;;;;11.2;10.1;;;;;;;17.76;65.5498;95522.15;;;;
2022/07/15 02:50:11;;;;;;;11.2;10.1;;;;;;;17.76;65.5498;95522.15;;;;
2022/07/15 02:51:13;;;;;;;10.1;8.9;;;;;;;17.73;66.19238;95532.93;;;;
2022/07/15 02:52:14;;;;;;;10.1;8.9;;;;;;;17.73;66.19238;95532.93;;;;
2022/07/15 02:53:15;;;;;;;10.1;8.9;;;;;;;17.73;66.19238;95532.93;;;;
2022/07/15 02:54:15;;;;;;;10.1;8.9;;;;;;;17.73;66.19238;95532.93;;;;
2022/07/15 02:55:16;;;;;;;10.1;8.9;;;;;;;17.73;66.19238;95532.93;;;;
2022/07/15 02:56:17;;;;;;;10.1;8.9;;;;;;;17.73;66.19238;95532.93;;;;
2022/07/15 02:57:17;;;;;;;10.1;8.9;;;;;;;17.73;66.19238;95532.93;;;;
2022/07/15 02:58:18;;;;;;;10.1;8.9;;;;;;;17.73;66.19238;95532.93;;;;
2022/07/15 02:59:19;;;;;;;10.1;8.9;;;;;;;17.73;66.19238;95532.93;;;;
2022/07/15 03:00:19;;;;;;;10.1;8.9;;;;;;;17.73;66.19238;95532.93;;;;
2022/07/15 03:01:20;;;;;;;10.15;8.000001;;;;;;;17.65;66.53125;95547.16;;;;
2022/07/15 03:02:20;;;;;;;10.15;8.000001;;;;;;;17.65;66.53125;95547.16;;;;
2022/07/15 03:03:21;;;;;;;10.15;8.000001;;;;;;;17.65;66.53125;95547.16;;;;
2022/07/15 03:04:22;;;;;;;10.15;8.000001;;;;;;;17.65;66.53125;95547.16;;;;
2022/07/15 03:05:22;;;;;;;10.15;8.000001;;;;;;;17.65;66.53125;95547.16;;;;
2022/07/15 03:06:22;;;;;;;10.15;8.000001;;;;;;;17.65;66.53125;95547.16;;;;
2022/07/15 03:07:23;;;;;;;10.15;8.000001;;;;;;;17.65;66.53125;95547.16;;;;
2022/07/15 03:08:24;;;;;;;10.15;8.000001;;;;;;;17.65;66.53125;95547.16;;;;
2022/07/15 03:09:25;;;;;;;10.15;8.000001;;;;;;;17.65;66.53125;95547.16;;;;
2022/07/15 03:10:25;;;;;;;10.15;8.000001;;;;;;;17.65;66.53125;95547.16;;;;
2022/07/15 03:11:26;;;;;;;10.15;8.000001;;;;;;;17.65;66.53125;95547.16;;;;
2022/07/15 03:12:27;;;;;;;8.799998;7.9;;;;;;;17.45;66.79688;95549.97;;;;
2022/07/15 03:13:27;;;;;;;8.799998;7.9;;;;;;;17.45;66.79688;95549.97;;;;
2022/07/15 03:14:28;;;;;;;8.799998;7.9;;;;;;;17.45;66.79688;95549.97;;;;
2022/07/15 03:15:28;;;;;;;8.799998;7.9;;;;;;;17.45;66.79688;95549.97;;;;
2022/07/15 03:16:29;;;;;;;8.799998;7.9;;;;;;;17.45;66.79688;95549.97;;;;
2022/07/15 03:17:29;;;;;;;8.799998;7.9;;;;;;;17.45;66.79688;95549.97;;;;
2022/07/15 03:18:30;;;;;;;8.799998;7.9;;;;;;;17.45;66.79688;95549.97;;;;
2022/07/15 03:19:31;;;;;;;8.799998;7.9;;;;;;;17.45;66.79688;95549.97;;;;
2022/07/15 03:20:31;;;;;;;8.799998;7.9;;;;;;;17.45;66.79688;95549.97;;;;
2022/07/15 03:21:32;;;;;;;8.799998;7.9;;;;;;;17.45;66.79688;95549.97;;;;
2022/07/15 03:22:33;;;;;;;7.900001;7.099999;;;;;;;17.26;67.26172;95552.63;;;;
2022/07/15 03:23:33;;;;;;;7.900001;7.099999;;;;;;;17.26;67.26172;95552.63;;;;
2022/07/15 03:24:34;;;;;;;7.900001;7.099999;;;;;;;17.26;67.26172;95552.63;;;;
2022/07/15 03:25:34;;;;;;;7.900001;7.099999;;;;;;;17.26;67.26172;95552.63;;;;
2022/07/15 03:26:35;;;;;;;7.900001;7.099999;;;;;;;17.26;67.26172;95552.63;;;;
2022/07/15 03:27:35;;;;;;;7.900001;7.099999;;;;;;;17.26;67.26172;95552.63;;;;
2022/07/15 03:28:37;;;;;;;7.900001;7.099999;;;;;;;17.26;67.26172;95552.63;;;;
2022/07/15 03:29:38;;;;;;;7.900001;7.099999;;;;;;;17.26;67.26172;95552.63;;;;
2022/07/15 03:30:39;;;;;;;7.900001;7.099999;;;;;;;17.26;67.26172;95552.63;;;;
2022/07/15 03:31:39;;;;;;;7.900001;7.099999;;;;;;;17.26;67.26172;95552.63;;;;
2022/07/15 03:32:40;;;;;;;7.900001;7.099999;;;;;;;17.26;67.26172;95552.63;;;;
2022/07/15 03:33:41;;;;;;;9.3;7.200001;;;;;;;16.97;67.6875;95563.17;;;;
2022/07/15 03:34:41;;;;;;;9.3;7.200001;;;;;;;16.97;67.6875;95563.17;;;;
2022/07/15 03:35:42;;;;;;;9.3;7.200001;;;;;;;16.97;67.6875;95563.17;;;;
2022/07/15 03:36:43;;;;;;;9.3;7.200001;;;;;;;16.97;67.6875;95563.17;;;;
2022/07/15 03:37:44;;;;;;;9.3;7.200001;;;;;;;16.97;67.6875;95563.17;;;;
2022/07/15 03:38:44;;;;;;;9.3;7.200001;;;;;;;16.97;67.6875;95563.17;;;;
2022/07/15 03:39:44;;;;;;;9.3;7.200001;;;;;;;16.97;67.6875;95563.17;;;;
2022/07/15 03:40:45;;;;;;;9.3;7.200001;;;;;;;16.97;67.6875;95563.17;;;;
2022/07/15 03:41:46;;;;;;;9.3;7.200001;;;;;;;16.97;67.6875;95563.17;;;;
2022/07/15 03:42:47;;;;;;;9.3;7.200001;;;;;;;16.97;67.6875;95563.17;;;;
2022/07/15 03:43:47;;;;;;;9.3;7.200001;;;;;;;16.97;67.6875;95563.17;;;;
2022/07/15 03:44:48;;;;;;;8.050002;6.2;;;;;;;16.78;68.09668;95564.86;;;;
2022/07/15 03:45:48;;;;;;;8.050002;6.2;;;;;;;16.78;68.09668;95564.86;;;;
2022/07/15 03:46:49;;;;;;;8.050002;6.2;;;;;;;16.78;68.09668;95564.86;;;;
2022/07/15 03:47:50;;;;;;;8.050002;6.2;;;;;;;16.78;68.09668;95564.86;;;;
2022/07/15 03:48:50;;;;;;;8.050002;6.2;;;;;;;16.78;68.09668;95564.86;;;;
2022/07/15 03:49:51;;;;;;;8.050002;6.2;;;;;;;16.78;68.09668;95564.86;;;;
2022/07/15 03:50:51;;;;;;;8.050002;6.2;;;;;;;16.78;68.09668;95564.86;;;;
2022/07/15 03:51:52;;;;;;;8.050002;6.2;;;;;;;16.78;68.09668;95564.86;;;;
2022/07/15 03:52:52;;;;;;;8.050002;6.2;;;;;;;16.78;68.09668;95564.86;;;;
2022/07/15 03:53:53;;;;;;;8.050002;6.2;;;;;;;16.78;68.09668;95564.86;;;;
2022/07/15 03:54:53;;;;;;;10.55;7;;;;;;;16.53;68.2002;95578.73;;;;
2022/07/15 03:55:54;;;;;;;10.55;7;;;;;;;16.53;68.2002;95578.73;;;;
2022/07/15 03:56:54;;;;;;;10.55;7;;;;;;;16.53;68.2002;95578.73;;;;
2022/07/15 03:57:55;;;;;;;10.55;7;;;;;;;16.53;68.2002;95578.73;;;;
2022/07/15 03:58:56;;;;;;;10.55;7;;;;;;;16.53;68.2002;95578.73;;;;
2022/07/15 03:59:57;;;;;;;10.55;7;;;;;;;16.53;68.2002;95578.73;;;;
2022/07/15 04:00:57;;;;;;;10.55;7;;;;;;;16.53;68.2002;95578.73;;;;
2022/07/15 04:01:58;;;;;;;10.55;7;;;;;;;16.53;68.2002;95578.73;;;;
2022/07/15 04:02:58;;;;;;;10.55;7;;;;;;;16.53;68.2002;95578.73;;;;
2022/07/15 04:03:59;;;;;;;10.55;7;;;;;;;16.53;68.2002;95578.73;;;;
2022/07/15 04:05:00;;;;;;;10.55;7;;;;;;;16.53;68.2002;95578.73;;;;
2022/07/15 04:06:00;;;;;;;9.300001;6.250001;;;;;;;16.42;68.61914;95579.58;;;;
2022/07/15 04:07:01;;;;;;;9.300001;6.250001;;;;;;;16.42;68.61914;95579.58;;;;
2022/07/15 04:08:01;;;;;;;9.300001;6.250001;;;;;;;16.42;68.61914;95579.58;;;;
2022/07/15 04:09:02;;;;;;;9.300001;6.250001;;;;;;;16.42;68.61914;95579.58;;;;
2022/07/15 04:10:03;;;;;;;9.300001;6.250001;;;;;;;16.42;68.61914;95579.58;;;;
2022/07/15 04:11:05;;;;;;;9.300001;6.250001;;;;;;;16.42;68.61914;95579.58;;;;
2022/07/15 04:12:05;;;;;;;9.300001;6.250001;;;;;;;16.42;68.61914;95579.58;;;;
2022/07/15 04:13:06;;;;;;;9.300001;6.250001;;;;;;;16.42;68.61914;95579.58;;;;
2022/07/15 04:14:06;;;;;;;9.300001;6.250001;;;;;;;16.42;68.61914;95579.58;;;;
2022/07/15 04:15:08;;;;;;;9.300001;6.250001;;;;;;;16.42;68.61914;95579.58;;;;
2022/07/15 04:16:09;;;;;;;7.750001;6.2;;;;;;;16.35;68.80566;95587.33;;;;
2022/07/15 04:17:10;;;;;;;7.750001;6.2;;;;;;;16.35;68.80566;95587.33;;;;
2022/07/15 04:18:10;;;;;;;7.750001;6.2;;;;;;;16.35;68.80566;95587.33;;;;
2022/07/15 04:19:11;;;;;;;7.750001;6.2;;;;;;;16.35;68.80566;95587.33;;;;
2022/07/15 04:20:12;;;;;;;7.750001;6.2;;;;;;;16.35;68.80566;95587.33;;;;
2022/07/15 04:21:12;;;;;;;7.750001;6.2;;;;;;;16.35;68.80566;95587.33;;;;
2022/07/15 04:22:13;;;;;;;7.750001;6.2;;;;;;;16.35;68.80566;95587.33;;;;
2022/07/15 04:23:14;;;;;;;7.750001;6.2;;;;;;;16.35;68.80566;95587.33;;;;
2022/07/15 04:24:15;;;;;;;7.750001;6.2;;;;;;;16.35;68.80566;95587.33;;;;
2022/07/15 04:25:15;;;;;;;7.750001;6.2;;;;;;;16.35;68.80566;95587.33;;;;
2022/07/15 04:26:18;;;;;;;7.750001;6.2;;;;;;;16.35;68.80566;95587.33;;;;
2022/07/15 04:27:19;;;;;;;10.4;6.199999;;;;;;;16.41;68.79297;95592.61;;;;
2022/07/15 04:28:19;;;;;;;10.4;6.199999;;;;;;;16.41;68.79297;95592.61;;;;
2022/07/15 04:29:20;;;;;;;10.4;6.199999;;;;;;;16.41;68.79297;95592.61;;;;
2022/07/15 04:30:20;;;;;;;10.4;6.199999;;;;;;;16.41;68.79297;95592.61;;;;
2022/07/15 04:31:21;;;;;;;10.4;6.199999;;;;;;;16.41;68.79297;95592.61;;;;
2022/07/15 04:32:22;;;;;;;10.4;6.199999;;;;;;;16.41;68.79297;95592.61;;;;
2022/07/15 04:33:23;;;;;;;10.4;6.199999;;;;;;;16.41;68.79297;95592.61;;;;
2022/07/15 04:34:23;;;;;;;10.4;6.199999;;;;;;;16.41;68.79297;95592.61;;;;
2022/07/15 04:35:24;;;;;;;10.4;6.199999;;;;;;;16.41;68.79297;95592.61;;;;
2022/07/15 04:36:24;;;;;;;10.4;6.199999;;;;;;;16.41;68.79297;95592.61;;;;
2022/07/15 04:37:25;;;;;;;6.199999;5.55;;;;;;;16.46;68.88867;95590.89;;;;
2022/07/15 04:38:26;;;;;;;6.199999;5.55;;;;;;;16.46;68.88867;95590.89;;;;
2022/07/15 04:39:26;;;;;;;6.199999;5.55;;;;;;;16.46;68.88867;95590.89;;;;
2022/07/15 04:40:27;;;;;;;6.199999;5.55;;;;;;;16.46;68.88867;95590.89;;;;
2022/07/15 04:41:27;;;;;;;6.199999;5.55;;;;;;;16.46;68.88867;95590.89;;;;
2022/07/15 04:42:28;;;;;;;6.199999;5.55;;;;;;;16.46;68.88867;95590.89;;;;
2022/07/15 04:43:28;;;;;;;6.199999;5.55;;;;;;;16.46;68.88867;95590.89;;;;
2022/07/15 04:44:28;;;;;;;6.199999;5.55;;;;;;;16.46;68.88867;95590.89;;;;
2022/07/15 04:45:29;;;;;;;6.199999;5.55;;;;;;;16.46;68.88867;95590.89;;;;
2022/07/15 04:46:29;;;;;;;6.199999;5.55;;;;;;;16.46;68.88867;95590.89;;;;
2022/07/15 04:47:30;;;;;;;6.199999;5.55;;;;;;;16.46;68.88867;95590.89;;;;
2022/07/15 04:53:46;;;;;;;8.149999;6.35;;;;;;;16.63;68.87012;95580.24;;;;
2022/07/15 04:54:46;;;;;;;8.149999;6.35;;;;;;;16.63;68.87012;95580.24;;;;
2022/07/15 04:55:47;;;;;;;8.149999;6.35;;;;;;;16.63;68.87012;95580.24;;;;
2022/07/15 04:56:48;;;;;;;8.149999;6.35;;;;;;;16.63;68.87012;95580.24;;;;
2022/07/15 04:57:48;;;;;;;8.149999;6.35;;;;;;;16.63;68.87012;95580.24;;;;
2022/07/15 04:58:49;;;;;;;6.700001;6;;;;;;;16.66;68.78711;95578;;;;
2022/07/15 04:59:49;;;;;;;6.700001;6;;;;;;;16.66;68.78711;95578;;;;
2022/07/15 05:00:50;;;;;;;6.700001;6;;;;;;;16.66;68.78711;95578;;;;
2022/07/15 05:01:51;;;;;;;6.700001;6;;;;;;;16.66;68.78711;95578;;;;
2022/07/15 05:02:51;;;;;;;6.700001;6;;;;;;;16.66;68.78711;95578;;;;
2022/07/15 05:03:52;;;;;;;6.700001;6;;;;;;;16.66;68.78711;95578;;;;
2022/07/15 05:04:52;;;;;;;6.700001;6;;;;;;;16.66;68.78711;95578;;;;
2022/07/15 05:05:53;;;;;;;6.700001;6;;;;;;;16.66;68.78711;95578;;;;
2022/07/15 05:06:53;;;;;;;6.700001;6;;;;;;;16.66;68.78711;95578;;;;
2022/07/15 05:07:54;;;;;;;6.700001;6;;;;;;;16.66;68.78711;95578;;;;
2022/07/15 05:08:54;;;;;;;6.700001;6;;;;;;;16.66;68.78711;95578;;;;
2022/07/15 05:09:55;;;;;;;6.85;5.900001;;;;;;;16.79;68.91699;95582.62;;;;
2022/07/15 05:10:55;;;;;;;6.85;5.900001;;;;;;;16.79;68.91699;95582.62;;;;
2022/07/15 05:11:56;;;;;;;6.85;5.900001;;;;;;;16.79;68.91699;95582.62;;;;
2022/07/15 05:12:57;;;;;;;6.85;5.900001;;;;;;;16.79;68.91699;95582.62;;;;
2022/07/15 05:13:57;;;;;;;6.85;5.900001;;;;;;;16.79;68.91699;95582.62;;;;
2022/07/15 05:14:58;;;;;;;6.85;5.900001;;;;;;;16.79;68.91699;95582.62;;;;
2022/07/15 05:15:59;;;;;;;6.85;5.900001;;;;;;;16.79;68.91699;95582.62;;;;
2022/07/15 05:17:00;;;;;;;6.85;5.900001;;;;;;;16.79;68.91699;95582.62;;;;
2022/07/15 05:18:00;;;;;;;6.85;5.900001;;;;;;;16.79;68.91699;95582.62;;;;
2022/07/15 05:19:01;;;;;;;6.85;5.900001;;;;;;;16.79;68.91699;95582.62;;;;
2022/07/15 05:20:02;;;;;;;7.75;5.2;;;;;;;16.97;68.96777;95588.53;;;;
2022/07/15 05:21:03;;;;;;;7.75;5.2;;;;;;;16.97;68.96777;95588.53;;;;
2022/07/15 05:22:04;;;;;;;7.75;5.2;;;;;;;16.97;68.96777;95588.53;;;;
2022/07/15 05:23:05;;;;;;;7.75;5.2;;;;;;;16.97;68.96777;95588.53;;;;
2022/07/15 05:24:05;;;;;;;7.75;5.2;;;;;;;16.97;68.96777;95588.53;;;;
2022/07/15 05:25:06;;;;;;;7.75;5.2;;;;;;;16.97;68.96777;95588.53;;;;
2022/07/15 05:26:07;;;;;;;7.75;5.2;;;;;;;16.97;68.96777;95588.53;;;;
2022/07/15 05:27:08;;;;;;;7.75;5.2;;;;;;;16.97;68.96777;95588.53;;;;
2022/07/15 05:28:08;;;;;;;7.75;5.2;;;;;;;16.97;68.96777;95588.53;;;;
2022/07/15 05:29:08;;;;;;;7.75;5.2;;;;;;;16.97;68.96777;95588.53;;;;
2022/07/15 05:30:09;;;;;;;7.75;5.2;;;;;;;16.97;68.96777;95588.53;;;;
2022/07/15 05:31:10;;;;;;;6.799999;4.95;;;;;;;17.25;68.68359;95602.17;;;;
2022/07/15 05:32:11;;;;;;;6.799999;4.95;;;;;;;17.25;68.68359;95602.17;;;;
2022/07/15 05:33:13;;;;;;;6.799999;4.95;;;;;;;17.25;68.68359;95602.17;;;;
2022/07/15 05:34:16;;;;;;;6.799999;4.95;;;;;;;17.25;68.68359;95602.17;;;;
2022/07/15 05:35:16;;;;;;;6.799999;4.95;;;;;;;17.25;68.68359;95602.17;;;;
2022/07/15 05:36:17;;;;;;;6.799999;4.95;;;;;;;17.25;68.68359;95602.17;;;;
2022/07/15 05:37:18;;;;;;;6.799999;4.95;;;;;;;17.25;68.68359;95602.17;;;;